ADDS TAF Board (Experimental) INFO Settings

IDs: Format: Expanded Condensed

KJFK - New York/Kennedy Int, NY, US

Issued at 1121 UTC 26 Apr 2015
Updated at: 1303 UTC 26 Apr 2015
Time1251Z 26/14Z 26/15Z 26/16Z 26/17Z 26/18Z 26/19Z 26/20Z 26/21Z 26/22Z 26/23Z 27/00Z 27/01Z 27/02Z
Type OBS PRVL PRVL PRVL PRVL PRVL PRVL PRVL PRVL PRVL PRVL PRVL PRVL PRVL
VIS 10 >6 >6 >6 >6 >6 >6 >6 >6 >6 >6 >6 >6 >6
CIG 260 -- -- -- -- -- -- -- -- -- -- 70 70 70
Cover BKN FEW FEW FEW FEW FEW SCT SCT SCT SCT SCT BKN BKN BKN
FltCat VFR VFR VFR VFR VFR VFR VFR VFR VFR VFR VFR VFR VFR VFR
WX -- -- -- -- -- -- -- -- -- -- -- -- -- --
WDir 50 40 40 40 40 40 180 180 180 180 180 190 190 190
WSpd 10 7 7 7 7 7 12 12 12 12 12 7 7 7
WGst -- -- -- -- -- -- -- -- -- -- -- -- -- --
R04/22
XWnd -3 -1 -1 -1 -1 -1 -6 -6 -6 -6 -6 -3 -3 -3
HWnd 9 7 7 7 7 7 -10 -10 -10 -10 -10 -7 -7 -7
R13/31
XWnd 9 7 7 7 7 7 -10 -10 -10 -10 -10 -7 -7 -7
HWnd 3 1 1 1 1 1 6 6 6 6 6 3 3 3

NOTE: TEMPO conditions in [brackets]. Keep in mind TEMPO conditions might be better (lower impact) than prevailing conditions.

Raw TAF
KJFK 261121Z 2612/2718 04007KT P6SM FEW050
  FM261900 18012KT P6SM SCT070
  FM270000 19007KT P6SM BKN070
  FM270400 32007KT P6SM SCT070
  FM271400 32012KT P6SM SCT050


Raw METAR
KJFK 261251Z 05010KT 10SM BKN260 12/M02 A2971 RMK AO2 SLP062 T01171017 $
KJFK 261151Z 04010KT 10SM BKN260 09/M01 A2971 RMK AO2 SLP060 T00941011 10094 20067 51010 $
KJFK 261051Z 03008KT 10SM BKN260 08/M01 A2970 RMK AO2 SLP056 T00781011 $

METAR Board
Radar Display
Forecast Discussion

TAF Board Legend

Potential Impact
Threat None Slight Moderate High
Visibility (sm) ≥5.1 5.1>X≥3 3>X≥1 <1
Ceiling (100 ft) ≥30.1 30.1>X≥10 10>X≥5 <5
Wind Speed (kt) <10 10≤X<20 20≤X<30 ≥30
Wind Gust (kt) <15 15≤X<25 25≤X<35 ≥35
Weather No Wx Reported VCTS,-TS,-FZRA,SN TS,FZRA +TS,+FZRA,+SN